PWSweather.com
Personal Weather Stations
Station Observations
AF1HS
North Haven, CT 06473

North Haven, CT 06473

Lat: 41.3733, Lon: -72.8413

Elevation: 85.3

Station Type: Oregon Scientific WMR968

http://www.af1hs.com/wx/index.php

High Low Average
Temperature 64.2°F17.9°C 44.4°F6.9°C 52.1°F11.2°C
Dew Point 54.7°F12.6°C 44.4°F6.9°C 49.2°F9.6°C
Winds 5.4 mph 8.7 kmh Calm Calm 1.0 mph S1.6 kmh S
Wind Gusts 8.7 mph14.0 kmh -- 3.0 mph4.8 kmh
Humidity 100% 60% 91%
Pressure 30.15 in1021.0 mb 29.94 in1013.9 mb -
Precipitation 0.16 in4.1 mm - -
Hour Temp Dew Point Humidity Winds Wind Gusts Pressure Precip Precip Rate Daily Precip Total
12:00 AM 43.7°F6.5°C 43.7°F6.5°C 100% 3.1 mph S5.0 kmh S 5.8 mph9.3 kmh 30.17 in1021.7 mb - 0.00 in0.0 mm 0.00 in0.0 mm
12:10 AM 43.9°F6.6°C 43.9°F6.6°C 100% Calm Calm 3.6 mph5.8 kmh 30.15 in1021.0 mb - 0.00 in0.0 mm 0.00 in0.0 mm
12:20 AM 44.1°F6.7°C 44.1°F6.7°C 100% Calm Calm -- 30.15 in1021.0 mb - 0.00 in0.0 mm 0.00 in0.0 mm
12:30 AM 44.1°F6.7°C 44.1°F6.7°C 100% 1.0 mph S1.6 kmh S 3.1 mph5.0 kmh 30.15 in1021.0 mb - 0.00 in0.0 mm 0.00 in0.0 mm
12:40 AM 44.1°F6.7°C 44.1°F6.7°C 100% Calm Calm 4.0 mph6.4 kmh 30.15 in1021.0 mb - 0.00 in0.0 mm 0.00 in0.0 mm
12:50 AM 44.2°F6.8°C 44.2°F6.8°C 100% Calm Calm -- 30.15 in1021.0 mb - 0.04 in1.0 mm 0.04 in1.0 mm
01:00 AM 44.4°F6.9°C 44.4°F6.9°C 100% Calm Calm -- 30.15 in1021.0 mb - 0.00 in0.0 mm 0.08 in2.0 mm
01:10 AM 44.4°F6.9°C 44.4°F6.9°C 100% Calm Calm -- 30.15 in1021.0 mb - 0.04 in1.0 mm 0.08 in2.0 mm
01:20 AM 44.4°F6.9°C 44.4°F6.9°C 100% Calm Calm -- 30.15 in1021.0 mb - 0.00 in0.0 mm 0.08 in2.0 mm
01:30 AM 44.4°F6.9°C 44.4°F6.9°C 100% Calm Calm 2.7 mph4.3 kmh 30.14 in1020.7 mb - 0.00 in0.0 mm 0.08 in2.0 mm
01:40 AM 44.4°F6.9°C 44.4°F6.9°C 100% Calm Calm -- 30.12 in1020.0 mb - 0.00 in0.0 mm 0.08 in2.0 mm
01:50 AM 44.4°F6.9°C 44.4°F6.9°C 100% Calm Calm -- 30.12 in1020.0 mb - 0.00 in0.0 mm 0.08 in2.0 mm
02:00 AM 44.4°F6.9°C 44.4°F6.9°C 100% Calm Calm -- 30.12 in1020.0 mb - 0.00 in0.0 mm 0.08 in2.0 mm
02:10 AM 44.6°F7.0°C 44.6°F7.0°C 100% Calm Calm -- 30.12 in1020.0 mb - 0.00 in0.0 mm 0.08 in2.0 mm
02:20 AM 44.6°F7.0°C 44.6°F7.0°C 100% Calm Calm -- 30.12 in1020.0 mb - 0.00 in0.0 mm 0.08 in2.0 mm
02:30 AM 44.6°F7.0°C 44.6°F7.0°C 100% 0.7 mph S1.1 kmh S 3.1 mph5.0 kmh 30.11 in1019.6 mb - 0.00 in0.0 mm 0.08 in2.0 mm
02:40 AM 44.7°F7.1°C 44.7°F7.1°C 100% Calm Calm 4.9 mph7.9 kmh 30.09 in1019.0 mb - 0.00 in0.0 mm 0.08 in2.0 mm
02:50 AM 44.8°F7.1°C 44.8°F7.1°C 100% 0.5 mph SE0.8 kmh SE 4.0 mph6.4 kmh 30.09 in1019.0 mb - 0.00 in0.0 mm 0.08 in2.0 mm
03:00 AM 44.8°F7.1°C 44.8°F7.1°C 100% 0.7 mph SE1.1 kmh SE 2.2 mph3.5 kmh 30.09 in1019.0 mb - 0.04 in1.0 mm 0.12 in3.0 mm
03:10 AM 45.0°F7.2°C 45.0°F7.2°C 100% Calm Calm 3.1 mph5.0 kmh 30.09 in1019.0 mb - 0.04 in1.0 mm 0.12 in3.0 mm
03:20 AM 45.0°F7.2°C 45.0°F7.2°C 100% Calm Calm 2.2 mph3.5 kmh 30.09 in1019.0 mb - 0.00 in0.0 mm 0.12 in3.0 mm
03:30 AM 45.1°F7.3°C 45.1°F7.3°C 100% 0.3 mph SE0.5 kmh SE -- 30.09 in1019.0 mb - 0.00 in0.0 mm 0.12 in3.0 mm
03:40 AM 45.1°F7.3°C 45.1°F7.3°C 100% Calm Calm -- 30.09 in1019.0 mb - 0.00 in0.0 mm 0.12 in3.0 mm
03:50 AM 45.1°F7.3°C 45.1°F7.3°C 100% Calm Calm -- 30.09 in1019.0 mb - 0.00 in0.0 mm 0.12 in3.0 mm
04:00 AM 45.1°F7.3°C 45.1°F7.3°C 100% Calm Calm -- 30.08 in1018.6 mb - 0.00 in0.0 mm 0.12 in3.0 mm
04:10 AM 45.3°F7.4°C 45.3°F7.4°C 100% Calm Calm -- 30.06 in1017.9 mb - 0.00 in0.0 mm 0.12 in3.0 mm
04:20 AM 45.3°F7.4°C 45.3°F7.4°C 100% Calm Calm -- 30.06 in1017.9 mb - 0.00 in0.0 mm 0.12 in3.0 mm
04:30 AM 45.3°F7.4°C 45.3°F7.4°C 100% Calm Calm 2.7 mph4.3 kmh 30.06 in1017.9 mb - 0.00 in0.0 mm 0.12 in3.0 mm
04:40 AM 45.3°F7.4°C 45.3°F7.4°C 100% Calm Calm -- 30.06 in1017.9 mb - 0.00 in0.0 mm 0.12 in3.0 mm
04:50 AM 45.5°F7.5°C 45.5°F7.5°C 100% Calm Calm -- 30.06 in1017.9 mb - 0.00 in0.0 mm 0.12 in3.0 mm
05:00 AM 45.5°F7.5°C 45.5°F7.5°C 100% Calm Calm -- 30.06 in1017.9 mb - 0.00 in0.0 mm 0.12 in3.0 mm
05:10 AM 45.5°F7.5°C 45.5°F7.5°C 100% Calm Calm -- 30.06 in1017.9 mb - 0.00 in0.0 mm 0.12 in3.0 mm
05:20 AM 45.5°F7.5°C 45.5°F7.5°C 100% Calm Calm -- 30.06 in1017.9 mb - 0.00 in0.0 mm 0.12 in3.0 mm
05:30 AM 45.7°F7.6°C 45.7°F7.6°C 100% Calm Calm -- 30.05 in1017.6 mb - 0.00 in0.0 mm 0.12 in3.0 mm
05:40 AM 45.7°F7.6°C 45.7°F7.6°C 100% Calm Calm -- 30.03 in1016.9 mb - 0.00 in0.0 mm 0.12 in3.0 mm
05:50 AM 45.7°F7.6°C 45.7°F7.6°C 100% Calm Calm -- 30.03 in1016.9 mb - 0.00 in0.0 mm 0.12 in3.0 mm
06:00 AM 45.7°F7.6°C 45.7°F7.6°C 100% Calm Calm -- 30.03 in1016.9 mb - 0.00 in0.0 mm 0.12 in3.0 mm
06:10 AM 45.7°F7.6°C 45.7°F7.6°C 100% Calm Calm -- 30.03 in1016.9 mb - 0.00 in0.0 mm 0.12 in3.0 mm
06:20 AM 45.9°F7.7°C 45.9°F7.7°C 100% Calm Calm -- 30.03 in1016.9 mb - 0.00 in0.0 mm 0.12 in3.0 mm
06:30 AM 46.0°F7.8°C 46.0°F7.8°C 100% Calm Calm -- 30.05 in1017.6 mb - 0.00 in0.0 mm 0.12 in3.0 mm
06:40 AM 46.2°F7.9°C 46.2°F7.9°C 100% Calm Calm -- 30.06 in1017.9 mb - 0.00 in0.0 mm 0.12 in3.0 mm
06:50 AM 46.2°F7.9°C 46.2°F7.9°C 100% Calm Calm -- 30.06 in1017.9 mb - 0.00 in0.0 mm 0.12 in3.0 mm
07:00 AM 46.2°F7.9°C 46.2°F7.9°C 100% Calm Calm -- 30.06 in1017.9 mb - 0.00 in0.0 mm 0.12 in3.0 mm
07:10 AM 46.4°F8.0°C 46.4°F8.0°C 100% Calm Calm -- 30.06 in1017.9 mb - 0.00 in0.0 mm 0.12 in3.0 mm
07:20 AM 46.4°F8.0°C 46.4°F8.0°C 100% Calm Calm -- 30.06 in1017.9 mb - 0.04 in1.0 mm 0.16 in4.1 mm
07:30 AM 46.6°F8.1°C 46.6°F8.1°C 100% Calm Calm -- 30.06 in1017.9 mb - 0.00 in0.0 mm 0.16 in4.1 mm
07:40 AM 46.8°F8.2°C 46.8°F8.2°C 100% Calm Calm -- 30.06 in1017.9 mb - 0.00 in0.0 mm 0.16 in4.1 mm
07:50 AM 46.9°F8.3°C 46.9°F8.3°C 100% Calm Calm -- 30.06 in1017.9 mb - 0.00 in0.0 mm 0.16 in4.1 mm
08:00 AM 47.1°F8.4°C 47.1°F8.4°C 100% Calm Calm -- 30.06 in1017.9 mb - 0.00 in0.0 mm 0.16 in4.1 mm
08:10 AM 47.1°F8.4°C 47.1°F8.4°C 100% Calm Calm -- 30.06 in1017.9 mb - 0.00 in0.0 mm 0.16 in4.1 mm
08:20 AM 47.3°F8.5°C 47.3°F8.5°C 100% Calm Calm -- 30.06 in1017.9 mb - 0.00 in0.0 mm 0.16 in4.1 mm
08:30 AM 47.3°F8.5°C 47.3°F8.5°C 100% Calm Calm -- 30.06 in1017.9 mb - 0.00 in0.0 mm 0.16 in4.1 mm
08:40 AM 47.5°F8.6°C 47.5°F8.6°C 100% Calm Calm -- 30.06 in1017.9 mb - 0.00 in0.0 mm 0.16 in4.1 mm
08:50 AM 47.7°F8.7°C 47.7°F8.7°C 100% Calm Calm -- 30.06 in1017.9 mb - 0.00 in0.0 mm 0.16 in4.1 mm
09:00 AM 47.7°F8.7°C 47.7°F8.7°C 100% Calm Calm -- 30.06 in1017.9 mb - 0.00 in0.0 mm 0.16 in4.1 mm
09:10 AM 47.7°F8.7°C 47.7°F8.7°C 100% 1.9 mph SE3.1 kmh SE 3.6 mph5.8 kmh 30.06 in1017.9 mb - 0.00 in0.0 mm 0.16 in4.1 mm
09:20 AM 47.9°F8.8°C 47.9°F8.8°C 100% Calm Calm -- 30.06 in1017.9 mb - 0.00 in0.0 mm 0.16 in4.1 mm
09:30 AM 48.2°F9.0°C 48.2°F9.0°C 100% Calm Calm -- 30.06 in1017.9 mb - 0.00 in0.0 mm 0.16 in4.1 mm
09:40 AM 48.5°F9.2°C 48.5°F9.2°C 100% 2.7 mph SE4.3 kmh SE -- 30.06 in1017.9 mb - 0.00 in0.0 mm 0.16 in4.1 mm
09:50 AM 48.7°F9.3°C 48.7°F9.3°C 100% Calm Calm -- 30.06 in1017.9 mb - 0.00 in0.0 mm 0.16 in4.1 mm
10:00 AM 48.8°F9.3°C 48.8°F9.3°C 100% Calm Calm -- 30.06 in1017.9 mb - 0.00 in0.0 mm 0.16 in4.1 mm
10:10 AM 49.5°F9.7°C 49.5°F9.7°C 100% Calm Calm 3.6 mph5.8 kmh 30.06 in1017.9 mb - 0.00 in0.0 mm 0.16 in4.1 mm
10:20 AM 50.4°F10.2°C 50.4°F10.2°C 100% Calm Calm 3.1 mph5.0 kmh 30.06 in1017.9 mb - 0.00 in0.0 mm 0.16 in4.1 mm
10:32 AM 50.4°F10.2°C 50.4°F10.2°C 100% 1.8 mph SE2.9 kmh SE 3.6 mph5.8 kmh 30.06 in1017.9 mb - 0.00 in0.0 mm 0.16 in4.1 mm
10:40 AM 50.4°F10.2°C 50.4°F10.2°C 100% 0.1 mph SE0.2 kmh SE 3.1 mph5.0 kmh 30.06 in1017.9 mb - 0.00 in0.0 mm 0.16 in4.1 mm
10:50 AM 51.8°F11.0°C 51.8°F11.0°C 100% 0.4 mph SE0.6 kmh SE 4.9 mph7.9 kmh 30.06 in1017.9 mb - 0.00 in0.0 mm 0.16 in4.1 mm
11:00 AM 53.3°F11.8°C 53.3°F11.8°C 100% 3.4 mph NW5.5 kmh NW 5.4 mph8.7 kmh 30.05 in1017.6 mb - 0.00 in0.0 mm 0.16 in4.1 mm
11:10 AM 54.1°F12.3°C 54.1°F12.3°C 100% 4.5 mph NW7.2 kmh NW 7.2 mph11.6 kmh 30.03 in1016.9 mb - 0.00 in0.0 mm 0.16 in4.1 mm
11:20 AM 54.5°F12.5°C 54.5°F12.5°C 100% 3.7 mph N6.0 kmh N 5.4 mph8.7 kmh 30.03 in1016.9 mb - 0.00 in0.0 mm 0.16 in4.1 mm
11:30 AM 55.5°F13.1°C 54.6°F12.6°C 97% 3.1 mph NW5.0 kmh NW 4.9 mph7.9 kmh 30.02 in1016.6 mb - 0.00 in0.0 mm 0.16 in4.1 mm
11:40 AM 56.7°F13.7°C 54.7°F12.6°C 93% 3.4 mph NW5.5 kmh NW 5.8 mph9.3 kmh 30.00 in1015.9 mb - 0.00 in0.0 mm 0.16 in4.1 mm
11:50 AM 56.6°F13.7°C 54.3°F12.4°C 92% 3.8 mph N6.1 kmh N 7.6 mph12.2 kmh 30.03 in1016.9 mb - 0.00 in0.0 mm 0.16 in4.1 mm
12:00 PM 56.1°F13.4°C 52.6°F11.4°C 88% 4.2 mph WNW6.8 kmh WNW 8.3 mph13.4 kmh 30.02 in1016.6 mb - 0.00 in0.0 mm 0.16 in4.1 mm
12:10 PM 56.5°F13.6°C 53.6°F12.0°C 90% 4.4 mph NNW7.1 kmh NNW 5.8 mph9.3 kmh 30.00 in1015.9 mb - 0.00 in0.0 mm 0.16 in4.1 mm
12:20 PM 56.5°F13.6°C 52.3°F11.3°C 86% 3.7 mph NW6.0 kmh NW 7.2 mph11.6 kmh 30.03 in1016.9 mb - 0.00 in0.0 mm 0.16 in4.1 mm
12:30 PM 56.9°F13.8°C 53.7°F12.1°C 89% 3.6 mph NW5.8 kmh NW 7.6 mph12.2 kmh 30.03 in1016.9 mb - 0.00 in0.0 mm 0.16 in4.1 mm
12:40 PM 57.8°F14.3°C 51.7°F10.9°C 80% 4.1 mph NNW6.6 kmh NNW 6.3 mph10.1 kmh 30.03 in1016.9 mb - 0.00 in0.0 mm 0.16 in4.1 mm
12:50 PM 59.9°F15.5°C 51.2°F10.7°C 73% 4.0 mph N6.4 kmh N 7.6 mph12.2 kmh 30.00 in1015.9 mb - 0.00 in0.0 mm 0.16 in4.1 mm
01:00 PM 60.8°F16.0°C 51.7°F10.9°C 72% 4.7 mph N7.6 kmh N 6.3 mph10.1 kmh 30.00 in1015.9 mb - 0.00 in0.0 mm 0.16 in4.1 mm
01:10 PM 61.0°F16.1°C 50.8°F10.4°C 69% 3.8 mph NW6.1 kmh NW 8.7 mph14.0 kmh 30.00 in1015.9 mb - 0.00 in0.0 mm 0.16 in4.1 mm
01:20 PM 60.8°F16.0°C 50.9°F10.5°C 70% 3.7 mph N6.0 kmh N 7.6 mph12.2 kmh 30.00 in1015.9 mb - 0.00 in0.0 mm 0.16 in4.1 mm
01:30 PM 60.3°F15.7°C 50.9°F10.5°C 71% 3.9 mph WNW6.3 kmh WNW 8.3 mph13.4 kmh 30.00 in1015.9 mb - 0.00 in0.0 mm 0.16 in4.1 mm
01:40 PM 60.1°F15.6°C 51.1°F10.6°C 72% 1.3 mph NNE2.1 kmh NNE 3.6 mph5.8 kmh 30.00 in1015.9 mb - 0.00 in0.0 mm 0.16 in4.1 mm
01:50 PM 61.7°F16.5°C 51.0°F10.6°C 68% 2.5 mph NE4.0 kmh NE 5.4 mph8.7 kmh 30.00 in1015.9 mb - 0.00 in0.0 mm 0.16 in4.1 mm
02:00 PM 61.9°F16.6°C 51.3°F10.7°C 68% 3.6 mph NW5.8 kmh NW 6.3 mph10.1 kmh 30.00 in1015.9 mb - 0.00 in0.0 mm 0.16 in4.1 mm
02:10 PM 62.2°F16.8°C 51.1°F10.6°C 67% 3.1 mph N5.0 kmh N 5.8 mph9.3 kmh 30.00 in1015.9 mb - 0.00 in0.0 mm 0.16 in4.1 mm
02:20 PM 63.0°F17.2°C 50.6°F10.3°C 64% 1.9 mph NE3.1 kmh NE 6.3 mph10.1 kmh 29.97 in1014.9 mb - 0.00 in0.0 mm 0.16 in4.1 mm
02:30 PM 63.6°F17.6°C 50.8°F10.4°C 63% 4.0 mph NW6.4 kmh NW 7.6 mph12.2 kmh 29.97 in1014.9 mb - 0.00 in0.0 mm 0.16 in4.1 mm
02:40 PM 63.2°F17.3°C 50.4°F10.2°C 63% 3.8 mph NNE6.1 kmh NNE 5.8 mph9.3 kmh 29.97 in1014.9 mb - 0.00 in0.0 mm 0.16 in4.1 mm
02:50 PM 63.0°F17.2°C 51.9°F11.1°C 67% 1.3 mph NNW2.1 kmh NNW 3.6 mph5.8 kmh 29.97 in1014.9 mb - 0.00 in0.0 mm 0.16 in4.1 mm
03:00 PM 64.2°F17.9°C 52.2°F11.2°C 65% 4.5 mph NE7.2 kmh NE 6.3 mph10.1 kmh 29.97 in1014.9 mb - 0.00 in0.0 mm 0.16 in4.1 mm
03:10 PM 64.0°F17.8°C 51.6°F10.9°C 64% 3.6 mph NNW5.8 kmh NNW 5.8 mph9.3 kmh 29.97 in1014.9 mb - 0.00 in0.0 mm 0.16 in4.1 mm
03:20 PM 64.0°F17.8°C 53.3°F11.8°C 68% 2.0 mph N3.2 kmh N 3.6 mph5.8 kmh 29.97 in1014.9 mb - 0.00 in0.0 mm 0.16 in4.1 mm
03:30 PM 63.8°F17.7°C 51.4°F10.8°C 64% 4.3 mph N6.9 kmh N 5.8 mph9.3 kmh 29.97 in1014.9 mb - 0.00 in0.0 mm 0.16 in4.1 mm
03:40 PM 63.7°F17.6°C 50.9°F10.5°C 63% 2.6 mph NE4.2 kmh NE 4.0 mph6.4 kmh 29.97 in1014.9 mb - 0.00 in0.0 mm 0.16 in4.1 mm
03:50 PM 63.3°F17.4°C 50.5°F10.3°C 63% 0.4 mph N0.6 kmh N -- 29.97 in1014.9 mb - 0.00 in0.0 mm 0.16 in4.1 mm
04:00 PM 63.7°F17.6°C 52.1°F11.2°C 66% 0.4 mph N0.6 kmh N 3.1 mph5.0 kmh 29.96 in1014.6 mb - 0.00 in0.0 mm 0.16 in4.1 mm
04:10 PM 63.7°F17.6°C 51.7°F10.9°C 65% Calm Calm 4.0 mph6.4 kmh 29.94 in1013.9 mb - 0.00 in0.0 mm 0.16 in4.1 mm
04:20 PM 63.6°F17.6°C 50.8°F10.4°C 63% 1.6 mph N2.6 kmh N 4.9 mph7.9 kmh 29.97 in1014.9 mb - 0.00 in0.0 mm 0.16 in4.1 mm
04:30 PM 63.8°F17.7°C 50.5°F10.3°C 62% 0.6 mph N1.0 kmh N 5.4 mph8.7 kmh 29.97 in1014.9 mb - 0.00 in0.0 mm 0.16 in4.1 mm
04:40 PM 64.0°F17.8°C 50.7°F10.4°C 62% 3.9 mph NW6.3 kmh NW 5.8 mph9.3 kmh 29.97 in1014.9 mb - 0.00 in0.0 mm 0.16 in4.1 mm
04:50 PM 63.5°F17.5°C 49.3°F9.6°C 60% 2.2 mph ENE3.5 kmh ENE -- 29.97 in1014.9 mb - 0.00 in0.0 mm 0.16 in4.1 mm
05:00 PM 63.1°F17.3°C 50.8°F10.4°C 64% 0.7 mph SSE1.1 kmh SSE 5.4 mph8.7 kmh 29.97 in1014.9 mb - 0.00 in0.0 mm 0.16 in4.1 mm
05:10 PM 62.2°F16.8°C 51.9°F11.1°C 69% 4.9 mph SSE7.9 kmh SSE 5.4 mph8.7 kmh 29.97 in1014.9 mb - 0.00 in0.0 mm 0.16 in4.1 mm
05:20 PM 61.1°F16.2°C 51.6°F10.9°C 71% 3.4 mph E5.5 kmh E 4.0 mph6.4 kmh 29.94 in1013.9 mb - 0.00 in0.0 mm 0.16 in4.1 mm
05:30 PM 60.3°F15.7°C 51.2°F10.7°C 72% 4.0 mph ESE6.4 kmh ESE 5.4 mph8.7 kmh 29.94 in1013.9 mb - 0.00 in0.0 mm 0.16 in4.1 mm
05:40 PM 59.6°F15.3°C 50.9°F10.5°C 73% 3.2 mph NE5.1 kmh NE 5.8 mph9.3 kmh 29.94 in1013.9 mb - 0.00 in0.0 mm 0.16 in4.1 mm
05:50 PM 58.5°F14.7°C 49.9°F9.9°C 73% 5.4 mph ESE8.7 kmh ESE 4.0 mph6.4 kmh 29.94 in1013.9 mb - 0.00 in0.0 mm 0.16 in4.1 mm
06:00 PM 57.6°F14.2°C 50.4°F10.2°C 77% 2.4 mph S3.9 kmh S 4.0 mph6.4 kmh 29.96 in1014.6 mb - 0.00 in0.0 mm 0.16 in4.1 mm
06:10 PM 57.3°F14.1°C 50.8°F10.4°C 79% 3.8 mph SSE6.1 kmh SSE 7.6 mph12.2 kmh 29.97 in1014.9 mb - 0.00 in0.0 mm 0.16 in4.1 mm
06:20 PM 56.7°F13.7°C 51.3°F10.7°C 82% 4.5 mph S7.2 kmh S 3.6 mph5.8 kmh 29.97 in1014.9 mb - 0.00 in0.0 mm 0.16 in4.1 mm
06:30 PM 56.8°F13.8°C 52.3°F11.3°C 85% Calm Calm -- 29.97 in1014.9 mb - 0.00 in0.0 mm 0.16 in4.1 mm
06:40 PM 56.6°F13.7°C 51.8°F11.0°C 84% 4.7 mph SE7.6 kmh SE 6.3 mph10.1 kmh 29.97 in1014.9 mb - 0.00 in0.0 mm 0.16 in4.1 mm
06:50 PM 56.0°F13.3°C 52.5°F11.4°C 88% 2.2 mph SSE3.5 kmh SSE 7.6 mph12.2 kmh 29.97 in1014.9 mb - 0.00 in0.0 mm 0.16 in4.1 mm
07:00 PM 55.6°F13.1°C 53.0°F11.7°C 91% 2.1 mph SSE3.4 kmh SSE 4.0 mph6.4 kmh 29.97 in1014.9 mb - 0.00 in0.0 mm 0.16 in4.1 mm
07:10 PM 55.2°F12.9°C 52.9°F11.6°C 92% 3.3 mph ESE5.3 kmh ESE 5.8 mph9.3 kmh 29.97 in1014.9 mb - 0.00 in0.0 mm 0.16 in4.1 mm
07:20 PM 54.7°F12.6°C 52.8°F11.6°C 93% 3.5 mph ESE5.6 kmh ESE 6.3 mph10.1 kmh 29.97 in1014.9 mb - 0.00 in0.0 mm 0.16 in4.1 mm
07:30 PM 54.3°F12.4°C 52.0°F11.1°C 92% 3.7 mph SE6.0 kmh SE 8.3 mph13.4 kmh 29.97 in1014.9 mb - 0.00 in0.0 mm 0.16 in4.1 mm
07:40 PM 53.9°F12.2°C 51.9°F11.1°C 93% 1.4 mph S2.3 kmh S 4.9 mph7.9 kmh 29.97 in1014.9 mb - 0.00 in0.0 mm 0.16 in4.1 mm
07:50 PM 53.4°F11.9°C 52.3°F11.3°C 96% 2.8 mph SSE4.5 kmh SSE 4.9 mph7.9 kmh 30.00 in1015.9 mb - 0.00 in0.0 mm 0.16 in4.1 mm
08:00 PM 53.2°F11.8°C 52.4°F11.3°C 97% Calm Calm 3.1 mph5.0 kmh 30.00 in1015.9 mb - 0.00 in0.0 mm 0.16 in4.1 mm
08:10 PM 53.1°F11.7°C 53.1°F11.7°C 100% 1.1 mph NNW1.8 kmh NNW 3.6 mph5.8 kmh 30.00 in1015.9 mb - 0.00 in0.0 mm 0.16 in4.1 mm
08:20 PM 52.7°F11.5°C 52.7°F11.5°C 100% 1.2 mph SSE1.9 kmh SSE 3.6 mph5.8 kmh 30.00 in1015.9 mb - 0.00 in0.0 mm 0.16 in4.1 mm
08:30 PM 52.3°F11.3°C 52.3°F11.3°C 100% Calm Calm -- 30.00 in1015.9 mb - 0.00 in0.0 mm 0.16 in4.1 mm
08:40 PM 52.1°F11.2°C 52.1°F11.2°C 100% 1.5 mph ESE2.4 kmh ESE 5.8 mph9.3 kmh 30.00 in1015.9 mb - 0.00 in0.0 mm 0.16 in4.1 mm
08:50 PM 51.8°F11.0°C 51.8°F11.0°C 100% 3.9 mph ESE6.3 kmh ESE 8.3 mph13.4 kmh 30.00 in1015.9 mb - 0.00 in0.0 mm 0.16 in4.1 mm
09:00 PM 51.5°F10.8°C 51.5°F10.8°C 100% 4.4 mph E7.1 kmh E 6.3 mph10.1 kmh 30.00 in1015.9 mb - 0.00 in0.0 mm 0.16 in4.1 mm
09:10 PM 51.2°F10.7°C 51.2°F10.7°C 100% 1.7 mph SSE2.7 kmh SSE 4.9 mph7.9 kmh 30.00 in1015.9 mb - 0.00 in0.0 mm 0.16 in4.1 mm
09:20 PM 51.1°F10.6°C 51.1°F10.6°C 100% Calm Calm 2.7 mph4.3 kmh 30.00 in1015.9 mb - 0.00 in0.0 mm 0.16 in4.1 mm
09:30 PM 50.7°F10.4°C 50.7°F10.4°C 100% 2.0 mph ENE3.2 kmh ENE 3.6 mph5.8 kmh 29.99 in1015.6 mb - 0.00 in0.0 mm 0.16 in4.1 mm
09:40 PM 50.5°F10.3°C 50.5°F10.3°C 100% 2.1 mph S3.4 kmh S 4.0 mph6.4 kmh 29.97 in1014.9 mb - 0.00 in0.0 mm 0.16 in4.1 mm
09:50 PM 50.4°F10.2°C 50.4°F10.2°C 100% 1.2 mph SE1.9 kmh SE 5.4 mph8.7 kmh 30.00 in1015.9 mb - 0.00 in0.0 mm 0.16 in4.1 mm
10:00 PM 50.4°F10.2°C 50.4°F10.2°C 100% 0.7 mph SE1.1 kmh SE 3.6 mph5.8 kmh 30.00 in1015.9 mb - 0.00 in0.0 mm 0.16 in4.1 mm
10:10 PM 50.5°F10.3°C 50.5°F10.3°C 100% 1.8 mph S2.9 kmh S 2.7 mph4.3 kmh 30.00 in1015.9 mb - 0.00 in0.0 mm 0.16 in4.1 mm
10:20 PM 50.3°F10.2°C 50.3°F10.2°C 100% 2.8 mph S4.5 kmh S 5.8 mph9.3 kmh 30.00 in1015.9 mb - 0.00 in0.0 mm 0.16 in4.1 mm
10:30 PM 50.2°F10.1°C 50.2°F10.1°C 100% 0.1 mph SSE0.2 kmh SSE 3.6 mph5.8 kmh 30.00 in1015.9 mb - 0.00 in0.0 mm 0.16 in4.1 mm
10:40 PM 49.9°F9.9°C 49.9°F9.9°C 100% 3.1 mph ESE5.0 kmh ESE 4.0 mph6.4 kmh 30.00 in1015.9 mb - 0.00 in0.0 mm 0.16 in4.1 mm
10:50 PM 49.6°F9.8°C 49.6°F9.8°C 100% 1.1 mph SE1.8 kmh SE 3.6 mph5.8 kmh 30.00 in1015.9 mb - 0.00 in0.0 mm 0.16 in4.1 mm
11:00 PM 49.5°F9.7°C 49.5°F9.7°C 100% 2.6 mph S4.2 kmh S 3.6 mph5.8 kmh 30.00 in1015.9 mb - 0.00 in0.0 mm 0.16 in4.1 mm
11:10 PM 49.1°F9.5°C 49.1°F9.5°C 100% 0.4 mph S0.6 kmh S -- 30.00 in1015.9 mb - 0.00 in0.0 mm 0.16 in4.1 mm
11:20 PM 49.1°F9.5°C 49.1°F9.5°C 100% 1.5 mph S2.4 kmh S 3.6 mph5.8 kmh 30.00 in1015.9 mb - 0.00 in0.0 mm 0.16 in4.1 mm
11:30 PM 48.9°F9.4°C 48.9°F9.4°C 100% 0.8 mph S1.3 kmh S 3.1 mph5.0 kmh 30.00 in1015.9 mb - 0.00 in0.0 mm 0.16 in4.1 mm
11:40 PM 48.6°F9.2°C 48.6°F9.2°C 100% Calm Calm 3.1 mph5.0 kmh 30.00 in1015.9 mb - 0.00 in0.0 mm 0.16 in4.1 mm
11:50 PM 48.4°F9.1°C 48.4°F9.1°C 100% 1.8 mph S2.9 kmh S 4.0 mph6.4 kmh 30.00 in1015.9 mb - 0.00 in0.0 mm 0.16 in4.1 mm